Latest Weather Observations for Spitfire Channel

IDQ60901

Issued at 10:01 pm EST Tuesday 6 December 2016 (issued every 10 minutes, with the page automatically refreshed every 10 minutes)

About weather observations | Map of Brisbane area stations | Latest observations for Brisbane area | Other Formats
Station Details ID: 040927 Name: SPITFIRE CHANNEL BEACON Lat: -27.05 Lon: 153.27 Height: 7.0 m
Data from the previous 72 hours. | See also: Recent months for locations in Queensland
Date/Time
EST
Temp
°C
App
Temp
°C
Dew
Point
°C
Rel
Hum
%
Delta-T
°C
Wind Press
QNH
hPa
Press
MSL
hPa
Rain since
9am
mm
Dir  Spd
km/h
Gust
km/h
Spd
kts
Gust
kts
06/10:00pm - - - - - N 43 50 23 27 - - -
06/09:30pm - - - - - N 46 56 25 30 - - -
06/09:00pm - - - - - N 50 59 27 32 - - -
06/08:30pm - - - - - N 46 56 25 30 - - -
06/08:00pm - - - - - N 48 57 26 31 - - -
06/07:30pm - - - - - N 46 56 25 30 - - -
06/07:00pm - - - - - N 46 56 25 30 - - -
06/06:30pm - - - - - N 46 57 25 31 - - -
06/06:00pm - - - - - N 44 54 24 29 - - -
06/05:30pm - - - - - N 43 50 23 27 - - -
06/05:00pm - - - - - N 41 48 22 26 - - -
06/04:30pm - - - - - N 37 44 20 24 - - -
06/04:00pm - - - - - N 35 43 19 23 - - -
06/03:30pm - - - - - N 33 41 18 22 - - -
06/03:00pm - - - - - N 37 43 20 23 - - -
06/02:30pm - - - - - N 39 44 21 24 - - -
06/02:00pm - - - - - NNW 39 46 21 25 - - -
06/01:30pm - - - - - N 37 44 20 24 - - -
06/01:00pm - - - - - NNW 37 43 20 23 - - -
06/12:30pm - - - - - NNW 37 41 20 22 - - -
06/12:00pm - - - - - NNW 32 37 17 20 - - -
06/11:30am - - - - - NNW 33 41 18 22 - - -
06/11:00am - - - - - NNW 35 41 19 22 - - -
06/10:30am - - - - - NNW 35 43 19 23 - - -
06/10:00am - - - - - NNW 33 41 18 22 - - -
06/09:30am - - - - - N 35 41 19 22 - - -
06/09:00am - - - - - N 33 39 18 21 - - -
06/08:30am - - - - - N 28 35 15 19 - - -
06/08:00am - - - - - NNE 32 37 17 20 - - -
06/07:30am - - - - - NNE 35 41 19 22 - - -
06/07:00am - - - - - NNE 35 41 19 22 - - -
06/06:30am - - - - - NNE 35 41 19 22 - - -
06/06:00am - - - - - NNE 30 37 16 20 - - -
06/05:30am - - - - - NNE 26 32 14 17 - - -
06/05:00am - - - - - N 28 30 15 16 - - -
06/04:30am - - - - - N 20 24 11 13 - - -
06/04:00am - - - - - N 22 26 12 14 - - -
06/03:30am - - - - - N 24 32 13 17 - - -
06/03:00am - - - - - NNW 24 30 13 16 - - -
06/02:30am - - - - - NNW 35 44 19 24 - - -
06/02:00am - - - - - NNW 41 48 22 26 - - -
06/01:30am - - - - - NNW 41 50 22 27 - - -
06/01:00am - - - - - NNW 41 50 22 27 - - -
06/12:30am - - - - - NNW 44 57 24 31 - - -
06/12:00am - - - - - NNW 43 50 23 27 - - -
 
Date/Time
EST
Temp
°C
App
Temp
°C
Dew
Point
°C
Rel
Hum
%
Delta-T
°C
Wind Press
QNH
hPa
Press
MSL
hPa
Rain since
9am
mm
Dir  Spd
km/h
Gust
km/h
Spd
kts
Gust
kts
05/11:30pm - - - - - N 44 54 24 29 - - -
05/11:00pm - - - - - N 44 56 24 30 - - -
05/10:30pm - - - - - N 48 59 26 32 - - -
05/10:00pm - - - - - N 46 54 25 29 - - -
05/09:30pm - - - - - N 50 61 27 33 - - -
05/09:00pm - - - - - N 48 57 26 31 - - -
05/08:30pm - - - - - N 50 57 27 31 - - -
05/08:00pm - - - - - N 46 56 25 30 - - -
05/07:30pm - - - - - N 44 57 24 31 - - -
05/07:00pm - - - - - N 46 54 25 29 - - -
05/06:30pm - - - - - N 44 56 24 30 - - -
05/06:00pm - - - - - N 44 52 24 28 - - -
05/05:30pm - - - - - N 43 52 23 28 - - -
05/05:00pm - - - - - N 43 52 23 28 - - -
05/04:30pm - - - - - N 43 54 23 29 - - -
05/04:00pm - - - - - N 37 44 20 24 - - -
05/03:30pm - - - - - N 41 48 22 26 - - -
05/03:00pm - - - - - N 39 46 21 25 - - -
05/02:30pm - - - - - N 37 44 20 24 - - -
05/02:00pm - - - - - N 35 44 19 24 - - -
05/01:30pm - - - - - N 35 43 19 23 - - -
05/01:00pm - - - - - N 39 44 21 24 - - -
05/12:30pm - - - - - N 37 44 20 24 - - -
05/12:00pm - - - - - N 35 43 19 23 - - -
05/11:30am - - - - - N 33 39 18 21 - - -
05/11:00am - - - - - N 35 43 19 23 - - -
05/10:30am - - - - - N 33 41 18 22 - - -
05/10:00am - - - - - N 35 43 19 23 - - -
05/09:30am - - - - - N 33 39 18 21 - - -
05/09:00am - - - - - N 35 41 19 22 - - -
05/08:30am - - - - - NNW 30 35 16 19 - - -
05/08:00am - - - - - NNW 30 35 16 19 - - -
05/07:30am - - - - - NNW 30 33 16 18 - - -
05/07:00am - - - - - NNW 30 33 16 18 - - -
05/06:30am - - - - - NNW 28 33 15 18 - - -
05/06:00am - - - - - NNW 28 33 15 18 - - -
05/05:30am - - - - - N 32 35 17 19 - - -
05/05:00am - - - - - NNW 28 33 15 18 - - -
05/04:30am - - - - - N 28 32 15 17 - - -
05/04:00am - - - - - NNW 30 33 16 18 - - -
05/03:30am - - - - - NNW 28 33 15 18 - - -
05/03:00am - - - - - NNW 28 33 15 18 - - -
05/02:30am - - - - - NNW 28 33 15 18 - - -
05/02:00am - - - - - N 28 30 15 16 - - -
05/01:30am - - - - - NNW 24 32 13 17 - - -
05/01:00am - - - - - NNW 28 32 15 17 - - -
05/12:30am - - - - - NNW 30 35 16 19 - - -
05/12:00am - - - - - N 32 37 17 20 - - -
 
Date/Time
EST
Temp
°C
App
Temp
°C
Dew
Point
°C
Rel
Hum
%
Delta-T
°C
Wind Press
QNH
hPa
Press
MSL
hPa
Rain since
9am
mm
Dir  Spd
km/h
Gust
km/h
Spd
kts
Gust
kts
04/11:30pm - - - - - NNW 33 41 18 22 - - -
04/11:00pm - - - - - NNW 30 35 16 19 - - -
04/10:30pm - - - - - N 32 37 17 20 - - -
04/10:00pm - - - - - N 32 37 17 20 - - -
04/09:30pm - - - - - N 32 39 17 21 - - -
04/09:00pm - - - - - N 30 33 16 18 - - -
04/08:30pm - - - - - N 30 39 16 21 - - -
04/08:00pm - - - - - N 32 35 17 19 - - -
04/07:30pm - - - - - N 30 35 16 19 - - -
04/07:00pm - - - - - N 33 39 18 21 - - -
04/06:30pm - - - - - N 35 39 19 21 - - -
04/06:00pm - - - - - N 33 39 18 21 - - -
04/05:30pm - - - - - N 33 41 18 22 - - -
04/05:00pm - - - - - N 33 39 18 21 - - -
04/04:30pm - - - - - N 37 43 20 23 - - -
04/04:00pm - - - - - N 33 41 18 22 - - -
04/03:30pm - - - - - N 33 41 18 22 - - -
04/03:00pm - - - - - N 32 39 17 21 - - -
04/02:30pm - - - - - N 32 37 17 20 - - -
04/02:00pm - - - - - N 33 41 18 22 - - -
04/01:30pm - - - - - N 32 39 17 21 - - -
04/01:00pm - - - - - N 32 37 17 20 - - -
04/12:30pm - - - - - N 30 35 16 19 - - -
04/12:00pm - - - - - N 28 35 15 19 - - -
04/11:30am - - - - - N 28 33 15 18 - - -
04/11:00am - - - - - N 26 32 14 17 - - -
04/10:30am - - - - - N 24 30 13 16 - - -
04/10:00am - - - - - N 26 32 14 17 - - -
04/09:30am - - - - - NNW 22 26 12 14 - - -
04/09:00am - - - - - NNW 20 24 11 13 - - -
04/08:30am - - - - - NNW 20 24 11 13 - - -
04/08:00am - - - - - NNW 20 22 11 12 - - -
04/07:30am - - - - - N 17 20 9 11 - - -
04/07:00am - - - - - N 13 15 7 8 - - -
04/06:30am - - - - - N 15 19 8 10 - - -
04/06:00am - - - - - NNE 17 22 9 12 - - -
04/05:30am - - - - - NE 15 19 8 10 - - -
04/05:00am - - - - - NE 19 20 10 11 - - -
04/04:30am - - - - - ENE 22 28 12 15 - - -
04/04:00am - - - - - ENE 15 26 8 14 - - -
04/03:30am - - - - - SE 2 4 1 2 - - -
04/03:00am - - - - - SSE 6 7 3 4 - - -
04/02:30am - - - - - W 9 13 5 7 - - -
04/02:00am - - - - - WNW 19 22 10 12 - - -
04/01:30am - - - - - WNW 20 24 11 13 - - -
04/01:00am - - - - - W 17 20 9 11 - - -
04/12:30am - - - - - NW 20 28 11 15 - - -
04/12:00am - - - - - NNW 22 28 12 15 - - -
 
Date/Time
EST
Temp
°C
App
Temp
°C
Dew
Point
°C
Rel
Hum
%
Delta-T
°C
Wind Press
QNH
hPa
Press
MSL
hPa
Rain since
9am
mm
Dir  Spd
km/h
Gust
km/h
Spd
kts
Gust
kts
03/11:30pm - - - - - NNW 24 30 13 16 - - -
03/11:00pm - - - - - N 28 35 15 19 - - -
03/10:30pm - - - - - N 39 46 21 25 - - -

Latest Capital City Observations: Canberra | Sydney | Melbourne | Brisbane | Adelaide | Perth | Hobart | Darwin

Other Formats:

Comma delimited format used in spreadsheet applications
http://www.bom.gov.au/fwo/IDQ60901/IDQ60901.94581.axf

JavaScript Object Notation format (JSON) in row-major order
http://www.bom.gov.au/fwo/IDQ60901/IDQ60901.94581.json